This is the latest recevied weather packets stored in our database for station/object DL6JOE-10. If no packets are shown the sender has not sent any weather packets the latest 1 day(s).
| Time | Temp. | Humidity | Pressure | Rain* | Wind** | Luminosity | Snow |
|---|---|---|---|---|---|---|---|
| 1778081811 | 23.33° C | 38% | 952.9 hPa | - | - | - | - |
| 1778080911 | 24.44° C | 38% | 951.9 hPa | - | - | - | - |
| 1778080011 | 24.44° C | 38% | 951.6 hPa | - | - | - | - |
| 1778079111 | 23.89° C | 39% | 951.8 hPa | - | - | - | - |
| 1778078211 | 23.89° C | 39% | 952 hPa | - | - | - | - |
| 1778069210 | 24.44° C | 40% | 952.1 hPa | - | - | - | - |
| 1778068310 | 24.44° C | 40% | 952.1 hPa | - | - | - | - |
| 1778062909 | 22.78° C | 43% | 953.2 hPa | - | - | - | - |
| 1778061109 | 21.67° C | 46% | 953.3 hPa | - | - | - | - |
| 1778060209 | 21.11° C | 48% | 953.2 hPa | - | - | - | - |
| 1778059309 | 20° C | 50% | 953.3 hPa | - | - | - | - |
| 1778058409 | 19.44° C | 52% | 953.4 hPa | - | - | - | - |
| 1778057509 | 18.89° C | 53% | 953.3 hPa | - | - | - | - |
| 1778054808 | 17.22° C | 55% | 953.4 hPa | - | - | - | - |
| 1778053908 | 17.22° C | 55% | 953.6 hPa | - | - | - | - |
| 1778053008 | 16.67° C | 56% | 953.7 hPa | - | - | - | - |
| 1778052108 | 16.67° C | 56% | 954 hPa | - | - | - | - |
| 1778051208 | 16.67° C | 56% | 953.8 hPa | - | - | - | - |
| 1778050308 | 16.67° C | 57% | 953.8 hPa | - | - | - | - |
| 1778049408 | 16.11° C | 57% | 953.7 hPa | - | - | - | - |
| 1778048508 | 15.56° C | 57% | 953.8 hPa | - | - | - | - |
| 1778047608 | 15° C | 55% | 953.9 hPa | - | - | - | - |
| 1778044907 | 13.33° C | 55% | 953.9 hPa | - | - | - | - |
| 1778044007 | 13.33° C | 54% | 953.9 hPa | - | - | - | - |
| 1778043107 | 13.33° C | 56% | 954 hPa | - | - | - | - |
* Rain since midnight (hover to see other rain measurements)
** Current wind speed in m/s (hover to see current wind gust speed)